»·PEaware :: N20332 KVCV-KVCV

N20332 :: KVCV-KVCV

FLIGHT INFORMATION

Flight Status: Arrived
Operator: Privately registered:
United States
More flights under this callsign
Pilot: Anonymous 30432 (30432)
Aircraft: CESSNA 172 SKYHAWK
(C172)
More flights by this aircraft type
Origin: KVCV Socal Logistics
United States
Destination: KVCV Socal Logistics
United States
More flights between these airports :: More routes between these airports
Route: +
File this flight plan on PilotEdge
Remarks: Practice Approaches
Altitude:
(Current/Filed)
0ft
Speed:
(Current/Filed)
0kts
Departed: 22-Aug-20 05:52 PM
Arrived: 22-Aug-20 06:24 PM
Distance/Time
Traveled:
1nm/0:31
Distance/Time
To Go:
Arrived

Flight Plot

Page will automatically refresh every two minutes.


Map Options




Map Legend


Flown Route
Filed Route
Departure Airport
Arrival Airport
Navaid (VOR, NDB)
Fix

Horizontal Profiles

Position Reports

Time Latitude Longitude Heading Altitude Ground
Speed
22-Aug-20 17:33 34.588333 -117.376341 313 2871ft 0kts
22-Aug-20 17:35 34.589356 -117.377284 322 2869ft 12kts
22-Aug-20 17:36 34.590040 -117.376131 43 2868ft 15kts
22-Aug-20 17:36 34.591379 -117.374575 57 2865ft 0kts
22-Aug-20 17:39 34.592569 -117.373139 48 2862ft 0kts
22-Aug-20 17:39 34.592956 -117.372724 25 2861ft 1kts
22-Aug-20 17:40 34.593093 -117.372643 28 2860ft 7kts
22-Aug-20 17:41 34.593372 -117.370098 99 2858ft 0kts
22-Aug-20 17:42 34.593216 -117.369342 95 2858ft 0kts
22-Aug-20 17:43 34.593193 -117.368797 98 2858ft 0kts
22-Aug-20 17:44 34.593193 -117.368797 98 2858ft 0kts
22-Aug-20 17:45 34.593170 -117.368648 105 2858ft 0kts
22-Aug-20 17:46 34.593820 -117.367787 12 2855ft 10kts
22-Aug-20 17:47 34.596089 -117.367267 11 2849ft 19kts
22-Aug-20 17:48 34.598455 -117.366759 0 2845ft 0kts
22-Aug-20 17:49 34.598455 -117.366759 0 2845ft 0kts
22-Aug-20 17:50 34.599086 -117.366630 7 2843ft 13kts
22-Aug-20 17:51 34.594247 -117.374706 225 3021ft 65kts
22-Aug-20 17:52 34.580162 -117.390634 217 3596ft 69kts
22-Aug-20 17:53 34.565688 -117.407669 215 4154ft 73kts
22-Aug-20 17:54 34.550789 -117.425141 220 4712ft 76kts
22-Aug-20 17:55 34.536018 -117.443878 219 5234ft 78kts
22-Aug-20 17:56 34.519963 -117.461515 214 5734ft 78kts
22-Aug-20 17:57 34.509945 -117.487068 293 5798ft 111kts
22-Aug-20 17:58 34.536170 -117.497096 0 5896ft 98kts
22-Aug-20 17:59 34.564300 -117.498705 1 6051ft 104kts
22-Aug-20 18:00 34.595147 -117.503684 359 6003ft 118kts
22-Aug-20 18:01 34.627601 -117.500542 13 5847ft 109kts
22-Aug-20 18:02 34.659072 -117.500667 3 5790ft 112kts
22-Aug-20 18:03 34.690282 -117.500372 3 5852ft 111kts
22-Aug-20 18:04 34.721493 -117.502060 4 5904ft 111kts
22-Aug-20 18:05 34.752658 -117.503120 4 5960ft 111kts
22-Aug-20 18:06 34.781894 -117.504613 356 6011ft 112kts
22-Aug-20 18:07 34.813253 -117.506855 0 6048ft 113kts
22-Aug-20 18:08 34.843351 -117.504364 61 6029ft 103kts
22-Aug-20 18:09 34.845553 -117.471041 93 6017ft 98kts
22-Aug-20 18:10 34.846330 -117.437506 94 6012ft 98kts
22-Aug-20 18:11 34.847329 -117.404259 90 6007ft 98kts
22-Aug-20 18:12 34.846860 -117.371188 117 5973ft 98kts
22-Aug-20 18:13 34.821272 -117.370408 197 5955ft 99kts
22-Aug-20 18:14 34.797513 -117.387520 194 5380ft 96kts
22-Aug-20 18:15 34.771766 -117.390440 179 5101ft 93kts
22-Aug-20 18:16 34.745900 -117.388474 181 5113ft 96kts
22-Aug-20 18:17 34.724055 -117.391301 174 4846ft 74kts
22-Aug-20 18:18 34.703444 -117.388818 180 4391ft 76kts
22-Aug-20 18:19 34.682406 -117.388943 179 4016ft 75kts
22-Aug-20 18:20 34.661382 -117.387515 174 3689ft 77kts
22-Aug-20 18:21 34.638920 -117.387298 179 3206ft 82kts
22-Aug-20 18:22 34.619283 -117.386702 178 2843ft 60kts
22-Aug-20 18:23 34.612831 -117.386662 182 2823ft 12kts
22-Aug-20 18:24 34.610595 -117.385987 92 2827ft 1kts
22-Aug-20 18:25 34.610595 -117.385984 92 2827ft 0kts

Navigation Log

Ident Type
Flight plan parsing failed, navigation log unavailable